Billy Bishop Toronto City Centre Airport
CYTZ : now visible

Airfield :











YOU CAN JOIN US ON...

 
LOGIN :

Register | Disclaimer

   EN    FR    IT 

 









Legend :    VFR   Marginal VFR   IFR   Intensive IFR   Very Intensive IFR
Visi :
Ceiling :
>= 8 km
>= 3000ft
5 to 8 km
1000 to 3000 ft
1500m to 5 km
500 to 1000 ft
800 to 1500m
200 to 500 ft
< 800m
< 200 ft
Symbols :   Thunderstorms  Fog  Heavy snow  Heavy precipitations  Wind > 20 kt







- Airport Elevation : 251 ft
- IATA code : YTZ


CYTZ - Billy Bishop Toronto City Centre

CURRENT METAR :
  • 211410Z AUTO 20005KT 5SM BR BKN006 BKN019 OVC035 07/06 A3000 RMK SLP161

EXPIRED METARs :
  • 211357Z AUTO 20005KT 6SM BR SCT006 BKN019 OVC035 07/06 A2999 RMK SLP159
  • 211348Z AUTO 20006KT 8SM SCT006 SCT019 OVC035 07/06 A2998 RMK SLP157
  • 211335Z AUTO 19006KT 7SM SCT006 BKN019 OVC035 07/06 A2998 RMK SLP155
  • 211326Z AUTO 21005KT 6SM BR BKN017 OVC035 07/06 A2998 RMK SLP154
  • 211300Z AUTO 22005KT 3SM BR OVC017 06/06 A2997 RMK SLP151
  • 211235Z AUTO 25003KT 230V290 3SM BR OVC017 07/07 A2995 RMK SLP146
  • 211200Z AUTO 28004KT 1 3/4SM BR FEW002 OVC021 06/06 A2994 RMK SLP142
  • 211142Z AUTO 28005KT 1 1/2SM BR SCT002 BKN012 OVC021 06/06 A2994 RMK SLP142
  • 211119Z AUTO 22004KT 1 1/4SM BR SCT014 OVC023 05/05 A2993 RMK SLP138

TAF TAF CYTZ
Valid from the 21 at 14:00 until the 22 at 14:00 UTC


211343Z 2114/2214 20005KT 6SM BR SCT008 BKN025
TEMPO 2114/2115 3SM -DZ BR BKN008 OVC020
FM211500 20008KT P6SM SCT006 BKN025
TEMPO 2115/2117 3SM -DZ BR BKN006 OVC025
FM211700 19008KT P6SM BKN025 BKN080
TEMPO 2117/2121 6SM -DZ -RA BR FEW008 OVC020
FM212100 18006KT P6SM SCT015 BKN025
FM212300 VRB03KT 6SM BR FEW012
TEMPO 2123/2213 21/2SM BR BKN012
PROB40 2203/2212 1/2SM FG VV002
FM221300 04005KT P6SM BKN008 RMK FCST BASED ON AUTO OBS. NXT FCST BY 212000Z
CZYZ FIR / North America



MET'MAP, your aeronautical weather chart ! - Copyright ORBIFLY December 2007 - Disclaimer

ORBIFLY MET'MAP TEAM :

Programming & Development : Alexandra Zaïnal
Concept & Development : Baudouin d'Aumeries
Co-Development & Prog : Marc-Olivier Méhu
Technical & hardware support : Manuel Goepfert

Contact : metmap@orbifly.com




SOURCES & CREDITS :

   NOAA       Earth
Advisory